PWSweather.com
Personal Weather Stations
Station Observations
KMNGREYC2
Grey Cloud Island, Grey Cloud Island, MN 55071

Grey Cloud IslandGrey Cloud Island, MN 55071

Lat: 44.799333, Lon: -92.987851

Elevation: 700

Station Type: Davis VP2

www.jagielski.com/weather/conditions.htm

High Low Average
Temperature 74.1°F23.4°C 66.8°F19.3°C 70.2°F21.2°C
Dew Point 72.4°F22.4°C 65.8°F18.8°C 69.3°F20.7°C
Winds 4.0 mph 6.4 kmh Calm Calm Calm SSWCalm SSW
Wind Gusts 24.0 mph38.6 kmh -- 3.0 mph4.8 kmh
Humidity 98% 92% 97%
Pressure 30.01 in1016.3 mb 29.79 in1008.8 mb -
Precipitation 0.00 in0.0 mm - -
Hour Temp Dew Point Humidity Winds Wind Gusts Pressure Precip Precip Rate Daily Precip Total
12:00 AM 68.6°F20.3°C 66.8°F19.3°C 94% 1.0 mph SSW1.6 kmh SSW 21.0 mph33.8 kmh 29.98 in1015.2 mb 0.15 in3.8 mm 0.00 in0.0 mm 0.15 in3.8 mm
12:15 AM 68.5°F20.3°C 66.7°F19.3°C 94% 1.0 mph SSW1.6 kmh SSW 2.0 mph3.2 kmh 29.96 in1014.6 mb 0.24 in6.1 mm 0.36 in9.1 mm 0.24 in6.1 mm
12:30 AM 68.3°F20.2°C 66.8°F19.3°C 95% Calm Calm 2.0 mph3.2 kmh 29.92 in1013.2 mb 0.28 in7.1 mm 0.16 in4.1 mm 0.28 in7.1 mm
12:45 AM 68.2°F20.1°C 67.0°F19.4°C 96% 4.0 mph SW6.4 kmh SW 17.0 mph27.4 kmh 29.92 in1013.2 mb 0.30 in7.6 mm 0.08 in2.0 mm 0.30 in7.6 mm
01:00 AM 68.2°F20.1°C 67.0°F19.4°C 96% 1.0 mph S1.6 kmh S 24.0 mph38.6 kmh 30.01 in1016.3 mb 0.78 in19.8 mm 0.64 in16.3 mm 0.78 in19.8 mm
01:15 AM 67.9°F19.9°C 66.7°F19.3°C 96% Calm Calm 5.0 mph8.0 kmh 29.94 in1013.9 mb 0.65 in16.5 mm 0.00 in0.0 mm 0.78 in19.8 mm
01:30 AM 67.6°F19.8°C 66.4°F19.1°C 96% 4.0 mph S6.4 kmh S 6.0 mph9.7 kmh 29.93 in1013.5 mb 0.68 in17.3 mm 0.12 in3.0 mm 0.81 in20.6 mm
01:45 AM 67.4°F19.7°C 66.2°F19.0°C 96% Calm Calm 4.0 mph6.4 kmh 29.94 in1013.9 mb 0.61 in15.5 mm 0.00 in0.0 mm 0.81 in20.6 mm
02:00 AM 67.1°F19.5°C 65.9°F18.8°C 96% Calm Calm 4.0 mph6.4 kmh 29.92 in1013.2 mb 0.63 in16.0 mm 0.03 in0.8 mm 0.83 in21.1 mm
02:15 AM 67.0°F19.4°C 65.8°F18.8°C 96% Calm Calm 2.0 mph3.2 kmh 29.91 in1012.9 mb 0.13 in3.3 mm 0.00 in0.0 mm 0.83 in21.1 mm
02:30 AM 67.0°F19.4°C 66.1°F18.9°C 97% 2.0 mph SW3.2 kmh SW 4.0 mph6.4 kmh 29.89 in1012.2 mb 0.15 in3.8 mm 0.08 in2.0 mm 0.85 in21.6 mm
02:45 AM 67.2°F19.6°C 66.3°F19.1°C 97% Calm Calm 7.0 mph11.3 kmh 29.85 in1010.8 mb 0.10 in2.5 mm 0.00 in0.0 mm 0.85 in21.6 mm
03:00 AM 67.2°F19.6°C 66.3°F19.1°C 97% 3.0 mph SSW4.8 kmh SSW 7.0 mph11.3 kmh 29.83 in1010.2 mb 0.12 in3.0 mm 0.03 in0.8 mm 0.87 in22.1 mm
03:15 AM 67.2°F19.6°C 66.3°F19.1°C 97% Calm Calm 3.0 mph4.8 kmh 29.84 in1010.5 mb 0.07 in1.8 mm 0.00 in0.0 mm 0.87 in22.1 mm
03:30 AM 67.1°F19.5°C 66.2°F19.0°C 97% Calm Calm 3.0 mph4.8 kmh 29.85 in1010.8 mb 0.07 in1.8 mm 0.00 in0.0 mm 0.87 in22.1 mm
03:45 AM 67.1°F19.5°C 66.2°F19.0°C 97% Calm Calm 1.0 mph1.6 kmh 29.86 in1011.2 mb 0.03 in0.8 mm 0.00 in0.0 mm 0.87 in22.1 mm
04:00 AM 67.0°F19.4°C 66.1°F18.9°C 97% 1.0 mph S1.6 kmh S 3.0 mph4.8 kmh 29.86 in1011.2 mb 0.03 in0.8 mm 0.00 in0.0 mm 0.87 in22.1 mm
04:15 AM 67.0°F19.4°C 66.1°F18.9°C 97% Calm Calm -- 29.86 in1011.2 mb 0.00 in0.0 mm 0.00 in0.0 mm 0.87 in22.1 mm
04:30 AM 66.9°F19.4°C 66.0°F18.9°C 97% Calm Calm 1.0 mph1.6 kmh 29.85 in1010.8 mb 0.01 in0.3 mm 0.04 in1.0 mm 0.88 in22.4 mm
04:45 AM 66.8°F19.3°C 65.9°F18.8°C 97% Calm Calm -- 29.86 in1011.2 mb 0.01 in0.3 mm 0.00 in0.0 mm 0.88 in22.4 mm
05:00 AM 66.9°F19.4°C 66.0°F18.9°C 97% Calm Calm 6.0 mph9.7 kmh 29.88 in1011.9 mb 0.03 in0.8 mm 0.03 in0.8 mm 0.90 in22.9 mm
05:15 AM 66.9°F19.4°C 66.0°F18.9°C 97% Calm Calm 1.0 mph1.6 kmh 29.88 in1011.9 mb 0.05 in1.3 mm 0.08 in2.0 mm 0.92 in23.4 mm
05:30 AM 67.3°F19.6°C 66.7°F19.3°C 98% 2.0 mph NW3.2 kmh NW 7.0 mph11.3 kmh 29.92 in1013.2 mb 0.08 in2.0 mm 0.12 in3.0 mm 0.95 in24.1 mm
05:45 AM 67.5°F19.7°C 66.9°F19.4°C 98% 2.0 mph NW3.2 kmh NW 5.0 mph8.0 kmh 29.92 in1013.2 mb 0.10 in2.5 mm 0.08 in2.0 mm 0.97 in24.6 mm
06:00 AM 67.8°F19.9°C 67.2°F19.6°C 98% 3.0 mph W4.8 kmh W 7.0 mph11.3 kmh 29.91 in1012.9 mb 0.14 in3.6 mm 0.05 in1.3 mm 1.01 in25.7 mm
06:15 AM 67.9°F19.9°C 67.3°F19.6°C 98% 1.0 mph N1.6 kmh N 6.0 mph9.7 kmh 29.90 in1012.5 mb 0.13 in3.3 mm 0.00 in0.0 mm 1.01 in25.7 mm
06:30 AM 67.9°F19.9°C 67.3°F19.6°C 98% 3.0 mph WNW4.8 kmh WNW 9.0 mph14.5 kmh 29.88 in1011.9 mb 0.14 in3.6 mm 0.04 in1.0 mm 1.02 in25.9 mm
06:45 AM 67.9°F19.9°C 67.3°F19.6°C 98% Calm Calm 8.0 mph12.9 kmh 29.86 in1011.2 mb 0.12 in3.0 mm 0.00 in0.0 mm 1.02 in25.9 mm
07:00 AM 67.7°F19.8°C 67.1°F19.5°C 98% 1.0 mph WNW1.6 kmh WNW 8.0 mph12.9 kmh 29.85 in1010.8 mb 0.15 in3.8 mm 0.04 in1.0 mm 1.05 in26.7 mm
07:15 AM 67.6°F19.8°C 67.0°F19.4°C 98% Calm Calm 8.0 mph12.9 kmh 29.85 in1010.8 mb 0.08 in2.0 mm 0.00 in0.0 mm 1.05 in26.7 mm
07:30 AM 67.6°F19.8°C 67.0°F19.4°C 98% Calm Calm 8.0 mph12.9 kmh 29.86 in1011.2 mb 0.09 in2.3 mm 0.04 in1.0 mm 1.06 in26.9 mm
07:45 AM 67.6°F19.8°C 67.0°F19.4°C 98% Calm Calm 1.0 mph1.6 kmh 29.88 in1011.9 mb 0.07 in1.8 mm 0.00 in0.0 mm 1.06 in26.9 mm
08:00 AM 67.8°F19.9°C 67.2°F19.6°C 98% Calm Calm 2.0 mph3.2 kmh 29.89 in1012.2 mb 0.08 in2.0 mm 0.01 in0.3 mm 1.07 in27.2 mm
08:15 AM 68.1°F20.1°C 67.5°F19.7°C 98% Calm Calm 3.0 mph4.8 kmh 29.90 in1012.5 mb 0.04 in1.0 mm 0.00 in0.0 mm 1.07 in27.2 mm
08:30 AM 68.3°F20.2°C 67.7°F19.8°C 98% Calm Calm 3.0 mph4.8 kmh 29.91 in1012.9 mb 0.04 in1.0 mm 0.00 in0.0 mm 1.07 in27.2 mm
08:45 AM 68.6°F20.3°C 68.0°F20.0°C 98% Calm Calm 1.0 mph1.6 kmh 29.91 in1012.9 mb 0.01 in0.3 mm 0.00 in0.0 mm 1.07 in27.2 mm
09:00 AM 68.9°F20.5°C 68.3°F20.2°C 98% Calm Calm 1.0 mph1.6 kmh 29.91 in1012.9 mb 0.01 in0.3 mm 0.00 in0.0 mm 1.07 in27.2 mm
09:15 AM 69.1°F20.6°C 68.5°F20.3°C 98% Calm Calm 4.0 mph6.4 kmh 29.90 in1012.5 mb 0.00 in0.0 mm 0.00 in0.0 mm 1.07 in27.2 mm
09:30 AM 69.3°F20.7°C 68.7°F20.4°C 98% Calm Calm 4.0 mph6.4 kmh 29.92 in1013.2 mb 0.00 in0.0 mm 0.00 in0.0 mm 1.07 in27.2 mm
09:45 AM 69.4°F20.8°C 68.8°F20.4°C 98% Calm Calm 2.0 mph3.2 kmh 29.89 in1012.2 mb 0.00 in0.0 mm 0.00 in0.0 mm 1.07 in27.2 mm
10:00 AM 69.5°F20.8°C 68.9°F20.5°C 98% Calm Calm 4.0 mph6.4 kmh 29.90 in1012.5 mb 0.00 in0.0 mm 0.00 in0.0 mm 1.07 in27.2 mm
10:15 AM 69.7°F20.9°C 69.1°F20.6°C 98% Calm Calm 5.0 mph8.0 kmh 29.90 in1012.5 mb 0.00 in0.0 mm 0.00 in0.0 mm 1.07 in27.2 mm
10:30 AM 69.9°F21.1°C 69.3°F20.7°C 98% 2.0 mph SW3.2 kmh SW 5.0 mph8.0 kmh 29.88 in1011.9 mb 0.00 in0.0 mm 0.00 in0.0 mm 1.07 in27.2 mm
10:45 AM 70.2°F21.2°C 69.6°F20.9°C 98% Calm Calm 4.0 mph6.4 kmh 29.87 in1011.5 mb 0.00 in0.0 mm 0.00 in0.0 mm 1.07 in27.2 mm
11:00 AM 70.4°F21.3°C 69.8°F21.0°C 98% Calm Calm 4.0 mph6.4 kmh 29.88 in1011.9 mb 0.00 in0.0 mm 0.00 in0.0 mm 1.07 in27.2 mm
11:15 AM 70.7°F21.5°C 70.1°F21.2°C 98% Calm Calm 3.0 mph4.8 kmh 29.88 in1011.9 mb 0.00 in0.0 mm 0.00 in0.0 mm 1.07 in27.2 mm
11:30 AM 70.9°F21.6°C 70.3°F21.3°C 98% Calm Calm 5.0 mph8.0 kmh 29.87 in1011.5 mb 0.00 in0.0 mm 0.00 in0.0 mm 1.07 in27.2 mm
11:45 AM 71.1°F21.7°C 70.5°F21.4°C 98% Calm Calm 2.0 mph3.2 kmh 29.87 in1011.5 mb 0.00 in0.0 mm 0.00 in0.0 mm 1.07 in27.2 mm
12:00 PM 71.3°F21.8°C 70.7°F21.5°C 98% Calm Calm 5.0 mph8.0 kmh 29.88 in1011.9 mb 0.00 in0.0 mm 0.00 in0.0 mm 1.07 in27.2 mm
12:15 PM 71.5°F21.9°C 70.9°F21.6°C 98% Calm Calm 3.0 mph4.8 kmh 29.86 in1011.2 mb 0.00 in0.0 mm 0.00 in0.0 mm 1.07 in27.2 mm
12:30 PM 71.9°F22.2°C 71.3°F21.8°C 98% Calm Calm 3.0 mph4.8 kmh 29.86 in1011.2 mb 0.00 in0.0 mm 0.00 in0.0 mm 1.07 in27.2 mm
12:45 PM 72.1°F22.3°C 71.5°F21.9°C 98% 1.0 mph SSW1.6 kmh SSW 4.0 mph6.4 kmh 29.86 in1011.2 mb 0.00 in0.0 mm 0.00 in0.0 mm 1.07 in27.2 mm
01:00 PM 72.1°F22.3°C 71.5°F21.9°C 98% Calm Calm 4.0 mph6.4 kmh 29.86 in1011.2 mb 0.00 in0.0 mm 0.00 in0.0 mm 1.07 in27.2 mm
01:15 PM 72.2°F22.3°C 71.6°F22.0°C 98% Calm Calm 1.0 mph1.6 kmh 29.87 in1011.5 mb 0.00 in0.0 mm 0.00 in0.0 mm 1.07 in27.2 mm
01:30 PM 72.3°F22.4°C 71.7°F22.1°C 98% Calm Calm 1.0 mph1.6 kmh 29.87 in1011.5 mb 0.00 in0.0 mm 0.00 in0.0 mm 1.07 in27.2 mm
01:45 PM 72.4°F22.4°C 71.8°F22.1°C 98% Calm Calm -- 29.88 in1011.9 mb 0.00 in0.0 mm 0.00 in0.0 mm 1.07 in27.2 mm
02:00 PM 72.6°F22.6°C 72.0°F22.2°C 98% Calm Calm -- 29.88 in1011.9 mb 0.00 in0.0 mm 0.00 in0.0 mm 1.07 in27.2 mm
02:15 PM 72.6°F22.6°C 72.0°F22.2°C 98% Calm Calm -- 29.88 in1011.9 mb 0.00 in0.0 mm 0.00 in0.0 mm 1.07 in27.2 mm
02:30 PM 72.8°F22.7°C 72.2°F22.3°C 98% Calm Calm 1.0 mph1.6 kmh 29.88 in1011.9 mb 0.00 in0.0 mm 0.00 in0.0 mm 1.07 in27.2 mm
02:45 PM 72.6°F22.6°C 71.7°F22.1°C 97% Calm Calm -- 29.87 in1011.5 mb 0.00 in0.0 mm 0.00 in0.0 mm 1.07 in27.2 mm
03:00 PM 72.8°F22.7°C 71.9°F22.2°C 97% Calm Calm 1.0 mph1.6 kmh 29.87 in1011.5 mb 0.00 in0.0 mm 0.00 in0.0 mm 1.07 in27.2 mm
03:15 PM 72.7°F22.6°C 71.8°F22.1°C 97% Calm Calm 2.0 mph3.2 kmh 29.86 in1011.2 mb 0.00 in0.0 mm 0.00 in0.0 mm 1.07 in27.2 mm
03:30 PM 72.9°F22.7°C 72.0°F22.2°C 97% Calm Calm 2.0 mph3.2 kmh 29.86 in1011.2 mb 0.00 in0.0 mm 0.00 in0.0 mm 1.07 in27.2 mm
03:45 PM 73.0°F22.8°C 72.1°F22.3°C 97% Calm Calm 3.0 mph4.8 kmh 29.85 in1010.8 mb 0.00 in0.0 mm 0.00 in0.0 mm 1.07 in27.2 mm
04:00 PM 73.3°F22.9°C 72.4°F22.4°C 97% 1.0 mph E1.6 kmh E 5.0 mph8.0 kmh 29.85 in1010.8 mb 0.00 in0.0 mm 0.00 in0.0 mm 1.07 in27.2 mm
04:15 PM 73.5°F23.1°C 72.3°F22.4°C 96% Calm Calm 4.0 mph6.4 kmh 29.84 in1010.5 mb 0.00 in0.0 mm 0.00 in0.0 mm 1.07 in27.2 mm
04:30 PM 73.9°F23.3°C 72.1°F22.3°C 94% Calm Calm 4.0 mph6.4 kmh 29.83 in1010.2 mb 0.00 in0.0 mm 0.00 in0.0 mm 1.07 in27.2 mm
04:45 PM 74.1°F23.4°C 72.0°F22.2°C 93% Calm Calm 1.0 mph1.6 kmh 29.83 in1010.2 mb 0.00 in0.0 mm 0.00 in0.0 mm 1.07 in27.2 mm
05:00 PM 74.1°F23.4°C 71.6°F22.0°C 92% Calm Calm 1.0 mph1.6 kmh 29.83 in1010.2 mb 0.00 in0.0 mm 0.00 in0.0 mm 1.07 in27.2 mm
05:15 PM 73.9°F23.3°C 71.8°F22.1°C 93% Calm Calm -- 29.83 in1010.2 mb 0.00 in0.0 mm 0.00 in0.0 mm 1.07 in27.2 mm
05:30 PM 73.7°F23.2°C 71.6°F22.0°C 93% Calm Calm -- 29.83 in1010.2 mb 0.00 in0.0 mm 0.00 in0.0 mm 1.07 in27.2 mm
05:45 PM 73.5°F23.1°C 71.7°F22.1°C 94% Calm Calm -- 29.82 in1009.8 mb 0.00 in0.0 mm 0.00 in0.0 mm 1.07 in27.2 mm
06:00 PM 73.2°F22.9°C 71.4°F21.9°C 94% Calm Calm -- 29.83 in1010.2 mb 0.03 in0.8 mm 0.04 in1.0 mm 1.10 in27.9 mm
06:15 PM 73.0°F22.8°C 71.5°F21.9°C 95% Calm Calm -- 29.83 in1010.2 mb 0.04 in1.0 mm 0.04 in1.0 mm 1.11 in28.2 mm
06:30 PM 72.6°F22.6°C 71.1°F21.7°C 95% Calm Calm -- 29.83 in1010.2 mb 0.06 in1.5 mm 0.08 in2.0 mm 1.13 in28.7 mm
06:45 PM 72.3°F22.4°C 70.8°F21.6°C 95% Calm Calm -- 29.82 in1009.8 mb 0.07 in1.8 mm 0.04 in1.0 mm 1.14 in29.0 mm
07:00 PM 72.1°F22.3°C 70.9°F21.6°C 96% Calm Calm -- 29.81 in1009.5 mb 0.08 in2.0 mm 0.01 in0.3 mm 1.15 in29.2 mm
07:15 PM 72.0°F22.2°C 70.8°F21.6°C 96% Calm Calm -- 29.81 in1009.5 mb 0.05 in1.3 mm 0.00 in0.0 mm 1.15 in29.2 mm
07:30 PM 71.8°F22.1°C 70.6°F21.4°C 96% Calm Calm -- 29.80 in1009.1 mb 0.06 in1.5 mm 0.04 in1.0 mm 1.16 in29.5 mm
07:45 PM 71.7°F22.1°C 70.5°F21.4°C 96% Calm Calm -- 29.80 in1009.1 mb 0.03 in0.8 mm 0.00 in0.0 mm 1.16 in29.5 mm
08:00 PM 71.7°F22.1°C 70.8°F21.6°C 97% Calm Calm -- 29.79 in1008.8 mb 0.03 in0.8 mm 0.00 in0.0 mm 1.16 in29.5 mm
08:15 PM 71.7°F22.1°C 70.8°F21.6°C 97% Calm Calm -- 29.80 in1009.1 mb 0.01 in0.3 mm 0.00 in0.0 mm 1.16 in29.5 mm
08:30 PM 71.6°F22.0°C 70.7°F21.5°C 97% Calm Calm -- 29.81 in1009.5 mb 0.01 in0.3 mm 0.00 in0.0 mm 1.16 in29.5 mm
08:45 PM 71.5°F21.9°C 70.6°F21.4°C 97% Calm Calm -- 29.81 in1009.5 mb 0.01 in0.3 mm 0.00 in0.0 mm 1.16 in29.5 mm
09:00 PM 71.4°F21.9°C 70.5°F21.4°C 97% Calm Calm -- 29.81 in1009.5 mb 0.02 in0.5 mm 0.01 in0.3 mm 1.17 in29.7 mm
09:15 PM 71.3°F21.8°C 70.4°F21.3°C 97% Calm Calm -- 29.82 in1009.8 mb 0.02 in0.5 mm 0.00 in0.0 mm 1.17 in29.7 mm
09:30 PM 71.3°F21.8°C 70.4°F21.3°C 97% Calm Calm 1.0 mph1.6 kmh 29.83 in1010.2 mb 0.07 in1.8 mm 0.20 in5.1 mm 1.22 in31.0 mm
09:45 PM 71.3°F21.8°C 70.4°F21.3°C 97% Calm Calm 2.0 mph3.2 kmh 29.81 in1009.5 mb 0.13 in3.3 mm 0.24 in6.1 mm 1.28 in32.5 mm
10:00 PM 71.1°F21.7°C 70.2°F21.2°C 97% 1.0 mph NNE1.6 kmh NNE 2.0 mph3.2 kmh 29.80 in1009.1 mb 0.13 in3.3 mm 0.00 in0.0 mm 1.28 in32.5 mm
10:15 PM 70.8°F21.6°C 69.9°F21.1°C 97% Calm Calm 1.0 mph1.6 kmh 29.80 in1009.1 mb 0.12 in3.0 mm 0.00 in0.0 mm 1.28 in32.5 mm
10:30 PM 70.6°F21.4°C 69.7°F20.9°C 97% Calm Calm 1.0 mph1.6 kmh 29.81 in1009.5 mb 0.12 in3.0 mm 0.00 in0.0 mm 1.28 in32.5 mm
10:45 PM 70.4°F21.3°C 69.5°F20.8°C 97% Calm Calm -- 29.81 in1009.5 mb 0.06 in1.5 mm 0.00 in0.0 mm 1.28 in32.5 mm
11:00 PM 70.3°F21.3°C 69.4°F20.8°C 97% Calm Calm -- 29.79 in1008.8 mb 0.08 in2.0 mm 0.03 in0.8 mm 1.30 in33.0 mm
11:15 PM 70.3°F21.3°C 69.4°F20.8°C 97% Calm Calm -- 29.79 in1008.8 mb 0.07 in1.8 mm 0.00 in0.0 mm 1.30 in33.0 mm
11:30 PM 70.2°F21.2°C 69.3°F20.7°C 97% Calm Calm 1.0 mph1.6 kmh 29.80 in1009.1 mb 0.09 in2.3 mm 0.08 in2.0 mm 1.32 in33.5 mm
11:45 PM 70.0°F21.1°C 69.1°F20.6°C 97% Calm Calm 2.0 mph3.2 kmh 29.80 in1009.1 mb 0.07 in1.8 mm 0.00 in0.0 mm 1.32 in33.5 mm